This is the latest recevied weather packets stored in our database for station/object K7DC. If no packets are shown the sender has not sent any weather packets the latest 1 day(s).
| Time | Temp. | Humidity | Pressure | Rain* | Wind** | Luminosity | Snow |
|---|---|---|---|---|---|---|---|
| 1778004615 | 22.78° C | 43% | 1012.7 hPa | 0 mm | 2.68 m/s, 196° | 1007 W/m² | - |
| 1778004310 | 22.78° C | 46% | 1012.8 hPa | 0 mm | 1.79 m/s, 116° | 259 W/m² | - |
| 1778004008 | 21.67° C | 50% | 1012.8 hPa | 0 mm | 0.45 m/s, 209° | 797 W/m² | - |
| 1778003703 | 21.67° C | 52% | 1012.9 hPa | 0 mm | 0.89 m/s, 94° | 222 W/m² | - |
| 1778003400 | 21.67° C | 51% | 1013 hPa | 0 mm | 0.89 m/s, 42° | 190 W/m² | - |
| 1778003097 | 21.67° C | 53% | 1012.9 hPa | 0 mm | 0.45 m/s, 358° | 269 W/m² | - |
| 1778002793 | 22.22° C | 50% | 1012.8 hPa | 0 mm | 0.89 m/s, 14° | 292 W/m² | - |
| 1778002489 | 21.67° C | 53% | 1013 hPa | 0 mm | 0.45 m/s, 72° | 219 W/m² | - |
| 1778002187 | 22.22° C | 52% | 1013 hPa | 0 mm | 0 m/s | 267 W/m² | - |
| 1778001885 | 22.22° C | 51% | 1012.9 hPa | 0 mm | 0.89 m/s, 343° | 273 W/m² | - |
| 1778001584 | 21.67° C | 57% | 1013 hPa | 0 mm | 0 m/s | 317 W/m² | - |
| 1778001281 | 21.11° C | 57% | 1013 hPa | 0 mm | 0 m/s | 925 W/m² | - |
| 1778000978 | 21.11° C | 61% | 1013.2 hPa | 0 mm | 0.45 m/s, 84° | 371 W/m² | - |
| 1778000675 | 20.56° C | 59% | 1012.9 hPa | 0 mm | 0.89 m/s, 112° | 300 W/m² | - |
| 1778000370 | 20° C | 62% | 1012.9 hPa | 0 mm | 0 m/s | 582 W/m² | - |
| 1778000066 | 20° C | 63% | 1012.8 hPa | 0 mm | 0 m/s | 205 W/m² | - |
| 1777999761 | 20° C | 63% | 1013.1 hPa | 0 mm | 0.89 m/s, 57° | 874 W/m² | - |
| 1777999459 | 20.56° C | 62% | 1013.1 hPa | 0 mm | 1.79 m/s, 40° | 843 W/m² | - |
| 1777999156 | 19.44° C | 65% | 1013.1 hPa | 0 mm | 0.45 m/s, 5° | 216 W/m² | - |
| 1777998855 | 19.44° C | 65% | 1013.1 hPa | 0 mm | 1.34 m/s, 53° | 519 W/m² | - |
| 1777998554 | 20° C | 64% | 1013 hPa | 0 mm | 1.79 m/s, 36° | 389 W/m² | - |
| 1777998249 | 20° C | 68% | 1013.2 hPa | 0 mm | 0.45 m/s, 14° | 382 W/m² | - |
| 1777997947 | 20.56° C | 63% | 1013.2 hPa | 0 mm | 1.79 m/s, 50° | 347 W/m² | - |
| 1777997643 | 20° C | 67% | 1012.9 hPa | 0 mm | 0 m/s | 679 W/m² | - |
| 1777997340 | 19.44° C | 68% | 1013.1 hPa | 0 mm | 0.89 m/s, 336° | 884 W/m² | - |
* Rain latest hour (hover to see other rain measurements)
** Current wind speed in m/s (hover to see current wind gust speed)